TimeCDT,TemperatureF,Dew PointF,Humidity,Sea Level PressureIn,VisibilityMPH,Wind Direction,Wind SpeedMPH,Gust SpeedMPH,PrecipitationIn,Events,Conditions,WindDirDegrees,DateUTC
12:53 AM,50.0,46.0,86,30.11,10.0,Calm,Calm,-,N/A,,Scattered Clouds,0,2012-10-08 05:53:00
1:53 AM,50.0,45.0,83,30.11,10.0,Variable,3.5,-,N/A,,Clear,0,2012-10-08 06:53:00
2:53 AM,50.0,45.0,83,30.10,10.0,North,4.6,-,N/A,,Clear,360,2012-10-08 07:53:00
3:53 AM,48.9,45.0,86,30.10,10.0,North,3.5,-,N/A,,Clear,360,2012-10-08 08:53:00
4:53 AM,48.9,44.1,83,30.12,10.0,North,8.1,-,N/A,,Partly Cloudy,350,2012-10-08 09:53:00
5:53 AM,48.9,44.1,83,30.14,10.0,North,5.8,-,N/A,,Mostly Cloudy,350,2012-10-08 10:53:00
6:53 AM,48.9,46.0,90,30.16,10.0,North,5.8,-,N/A,,Mostly Cloudy,360,2012-10-08 11:53:00
7:53 AM,51.1,46.0,83,30.17,10.0,North,6.9,-,N/A,,Mostly Cloudy,360,2012-10-08 12:53:00
8:53 AM,53.1,46.0,77,30.19,10.0,NNE,9.2,-,N/A,,Partly Cloudy,20,2012-10-08 13:53:00
9:53 AM,55.9,46.0,69,30.19,10.0,North,11.5,17.3,N/A,,Partly Cloudy,360,2012-10-08 14:53:00
10:53 AM,57.0,46.0,67,30.19,10.0,North,8.1,-,N/A,,Overcast,360,2012-10-08 15:53:00
11:53 AM,59.0,46.9,64,30.18,10.0,North,8.1,-,N/A,,Overcast,350,2012-10-08 16:53:00
12:53 PM,63.0,46.9,56,30.16,10.0,NNW,9.2,-,N/A,,Mostly Cloudy,330,2012-10-08 17:53:00
1:53 PM,64.9,46.0,50,30.13,10.0,North,9.2,18.4,N/A,,Partly Cloudy,360,2012-10-08 18:53:00
2:53 PM,64.9,46.9,52,30.11,10.0,NNW,9.2,-,N/A,,Mostly Cloudy,340,2012-10-08 19:53:00
3:53 PM,64.9,48.0,54,30.10,10.0,North,9.2,-,N/A,,Clear,10,2012-10-08 20:53:00
4:53 PM,66.0,48.0,52,30.10,10.0,NNE,6.9,-,N/A,,Partly Cloudy,20,2012-10-08 21:53:00
5:53 PM,64.9,48.9,56,30.10,10.0,NNE,4.6,-,N/A,,Clear,20,2012-10-08 22:53:00
6:53 PM,60.1,51.1,72,30.11,10.0,Calm,Calm,-,N/A,,Clear,0,2012-10-08 23:53:00
7:53 PM,55.9,51.1,84,30.12,10.0,North,4.6,-,N/A,,Clear,350,2012-10-09 00:53:00
9:53 PM,54.0,48.9,83,30.13,10.0,North,4.6,-,N/A,,Clear,10,2012-10-09 02:53:00
10:53 PM,53.1,48.9,86,30.14,10.0,North,3.5,-,N/A,,Clear,10,2012-10-09 03:53:00
11:53 PM,52.0,48.9,89,30.13,10.0,North,3.5,-,N/A,,Clear,10,2012-10-09 04:53:00